Columbus Municipal Airport Columbus US
ICAO: KOLU
IATA: OLU
Category: Medium
Scheduled Services: No

Elevation: 1447 ft
TransAlt. 18000 ft.

Airport Communications:
AWOS 3:125.525
MINNEAPOLIS CNTR:128.75
CTAF/UNICOM:123.05
RDO:122.2

KOLU Zoom In..

If you have problems with the map follow the link
https://www.worldairports.se/pages/airport.php?
ICAO=KOLU

Runways:

(A) RW 02 length 4135 ft width 150 ft
LOC 109.10 / hdg 22

(B) RW 14 length 6801 ft width 100 ft
LOC 109.10 / hdg 142

(C) RW 20 length 4135 ft width 150 ft
LOC 109.10 / hdg 202

(D) RW 32 length 6801 ft width 100 ft
LOC 109.10 / hdg 322

Location; KOLU
Day. 17 / Time. 01.56 Zulu
* Altimeter: 29.91
* Temperature: 08° c. 46.4°f.
* Wind from: 130° Speed 03 kn.
Dewpoint: 01° c.
Visibility: 10 Statute Miles.

KOLU 170156Z AUTO 13003KT 10SM 08/01 A2991 RMK AO2 SLP143 T00780006 $


Wind From 130°
Speed 03 kn.

 
 
jpsmedia.com for Web Design worldairports.se 2018   terms of use